DFSTH EDNY-LOWI
Flight info
| Callsign | DFSTH |
|---|---|
| Flight time | 0h 34m |
| Altitude | 20000 |
| Route | 473630N0093512E 473006N0094445E DCT 471411N0093551E/N0279F190 470910N0094913E 470744N0100229E 470801N0101225E 470657N0101321E 470743N0101558E 470852N0102039E 470849N0102435E 470704N0102930E DCT 471304N0104424E 471240N0110000E DCT 471410N0111649E |
| Aircraft | PC12/L-SDFGRWY/S |
Departure
| Time | 2026-05-05 18:05 |
|---|---|
| Airport | Bodensee Airport Friedrichshafen (EDNY) |
Arrival
| Time | 2026-05-05 18:40 |
|---|---|
| Airport | Innsbruck Airport (LOWI) |
| Time | Latitude | Longitude | Altitude | Speed | Heading |
|---|---|---|---|---|---|
| 2026-05-05 17:48 | 47.67244 | 9.52060 | 1363 ft | 0 kts | 183° |
| 2026-05-05 17:56 | 47.67243 | 9.52060 | 1363 ft | 1 kts | 184° |
| 2026-05-05 17:56 | 47.67241 | 9.52060 | 1363 ft | 0 kts | 184° |
| 2026-05-05 18:00 | 47.67234 | 9.52054 | 1363 ft | 0 kts | 241° |
| 2026-05-05 18:00 | 47.67235 | 9.52042 | 1363 ft | 1 kts | 319° |
| 2026-05-05 18:00 | 47.67240 | 9.52039 | 1363 ft | 0 kts | 349° |
| 2026-05-05 18:01 | 47.67241 | 9.52039 | 1363 ft | 0 kts | 349° |
| 2026-05-05 18:01 | 47.67283 | 9.52041 | 1363 ft | 10 kts | 20° |
| 2026-05-05 18:02 | 47.67334 | 9.52144 | 1363 ft | 15 kts | 60° |
| 2026-05-05 18:02 | 47.67394 | 9.52298 | 1364 ft | 13 kts | 59° |
| 2026-05-05 18:02 | 47.67428 | 9.52354 | 1365 ft | 8 kts | 13° |
| 2026-05-05 18:02 | 47.67471 | 9.52326 | 1364 ft | 2 kts | 320° |
| 2026-05-05 18:03 | 47.67478 | 9.52316 | 1364 ft | 6 kts | 314° |
| 2026-05-05 18:04 | 47.67517 | 9.52231 | 1364 ft | 13 kts | 302° |
| 2026-05-05 18:04 | 47.67503 | 9.52110 | 1362 ft | 22 kts | 240° |
| 2026-05-05 18:04 | 47.67346 | 9.51699 | 1358 ft | 67 kts | 240° |
| 2026-05-05 18:04 | 47.67067 | 9.50972 | 1390 ft | 92 kts | 241° |
| 2026-05-05 18:05 | 47.66741 | 9.50109 | 1579 ft | 99 kts | 242° |
| 2026-05-05 18:05 | 47.66299 | 9.49310 | 1847 ft | 104 kts | 205° |
| 2026-05-05 18:05 | 47.65585 | 9.49708 | 2014 ft | 133 kts | 138° |
| 2026-05-05 18:05 | 47.64888 | 9.50697 | 2142 ft | 141 kts | 144° |
| 2026-05-05 18:06 | 47.64094 | 9.51568 | 2192 ft | 141 kts | 149° |
| 2026-05-05 18:06 | 47.63547 | 9.52106 | 2275 ft | 138 kts | 152° |
| 2026-05-05 18:06 | 47.62489 | 9.53176 | 2433 ft | 147 kts | 142° |
| 2026-05-05 18:06 | 47.61738 | 9.54417 | 2332 ft | 175 kts | 123° |
| 2026-05-05 18:07 | 47.61261 | 9.56132 | 2387 ft | 184 kts | 110° |
| 2026-05-05 18:07 | 47.60737 | 9.57867 | 2475 ft | 188 kts | 121° |
| 2026-05-05 18:07 | 47.60004 | 9.59504 | 2633 ft | 189 kts | 132° |
| 2026-05-05 18:07 | 47.59080 | 9.60840 | 2912 ft | 184 kts | 140° |
| 2026-05-05 18:08 | 47.58187 | 9.62203 | 3141 ft | 185 kts | 133° |
| 2026-05-05 18:08 | 47.57340 | 9.63722 | 3148 ft | 196 kts | 130° |
| 2026-05-05 18:08 | 47.56543 | 9.65322 | 3476 ft | 186 kts | 127° |
| 2026-05-05 18:08 | 47.55828 | 9.66920 | 3575 ft | 192 kts | 122° |
| 2026-05-05 18:09 | 47.55170 | 9.68655 | 3634 ft | 198 kts | 120° |
| 2026-05-05 18:09 | 47.54488 | 9.70465 | 3736 ft | 201 kts | 123° |
| 2026-05-05 18:09 | 47.53685 | 9.72098 | 3926 ft | 198 kts | 132° |
| 2026-05-05 18:09 | 47.52665 | 9.73394 | 4161 ft | 191 kts | 151° |
| 2026-05-05 18:10 | 47.51411 | 9.73886 | 4221 ft | 190 kts | 186° |
| 2026-05-05 18:10 | 47.50119 | 9.73611 | 4445 ft | 186 kts | 188° |
| 2026-05-05 18:10 | 47.48781 | 9.73406 | 4262 ft | 203 kts | 191° |
| 2026-05-05 18:10 | 47.47330 | 9.72915 | 3820 ft | 224 kts | 198° |
| 2026-05-05 18:11 | 47.45840 | 9.72186 | 3614 ft | 225 kts | 203° |
| 2026-05-05 18:11 | 47.44415 | 9.71388 | 3686 ft | 215 kts | 201° |
| 2026-05-05 18:11 | 47.42996 | 9.70732 | 3692 ft | 211 kts | 198° |
| 2026-05-05 18:11 | 47.41601 | 9.70213 | 3803 ft | 203 kts | 194° |
| 2026-05-05 18:12 | 47.40221 | 9.69800 | 3764 ft | 204 kts | 195° |
| 2026-05-05 18:12 | 47.38918 | 9.69129 | 3815 ft | 196 kts | 207° |
| 2026-05-05 18:12 | 47.37718 | 9.68146 | 3798 ft | 198 kts | 208° |
| 2026-05-05 18:12 | 47.36519 | 9.67250 | 3915 ft | 193 kts | 205° |
| 2026-05-05 18:13 | 47.35273 | 9.66346 | 3701 ft | 205 kts | 208° |
| 2026-05-05 18:13 | 47.34072 | 9.65204 | 3652 ft | 207 kts | 215° |
| 2026-05-05 18:13 | 47.32862 | 9.64018 | 3569 ft | 209 kts | 210° |
| 2026-05-05 18:13 | 47.31623 | 9.63261 | 4025 ft | 183 kts | 189° |
| 2026-05-05 18:14 | 47.30337 | 9.63279 | 3945 ft | 190 kts | 174° |
| 2026-05-05 18:14 | 47.29000 | 9.63345 | 3938 ft | 192 kts | 182° |
| 2026-05-05 18:14 | 47.27691 | 9.63184 | 4078 ft | 187 kts | 186° |
| 2026-05-05 18:14 | 47.26401 | 9.62977 | 4152 ft | 187 kts | 185° |
| 2026-05-05 18:15 | 47.25082 | 9.62776 | 4062 ft | 196 kts | 187° |
| 2026-05-05 18:15 | 47.23703 | 9.62614 | 3920 ft | 203 kts | 183° |
| 2026-05-05 18:15 | 47.22310 | 9.62785 | 4000 ft | 197 kts | 171° |
| 2026-05-05 18:15 | 47.21042 | 9.63342 | 4230 ft | 187 kts | 158° |
| 2026-05-05 18:16 | 47.19922 | 9.64332 | 4251 ft | 190 kts | 147° |
| 2026-05-05 18:16 | 47.18884 | 9.65514 | 4326 ft | 188 kts | 137° |
| 2026-05-05 18:16 | 47.18135 | 9.67069 | 4427 ft | 185 kts | 120° |
| 2026-05-05 18:16 | 47.17623 | 9.68809 | 4443 ft | 187 kts | 111° |
| 2026-05-05 18:17 | 47.17226 | 9.70633 | 4502 ft | 188 kts | 108° |
| 2026-05-05 18:17 | 47.16876 | 9.72498 | 4489 ft | 192 kts | 103° |
| 2026-05-05 18:17 | 47.16644 | 9.74484 | 4327 ft | 203 kts | 101° |
| 2026-05-05 18:17 | 47.16284 | 9.76492 | 4362 ft | 201 kts | 114° |
| 2026-05-05 18:18 | 47.15636 | 9.78241 | 4397 ft | 198 kts | 123° |
| 2026-05-05 18:18 | 47.14863 | 9.79980 | 4265 ft | 206 kts | 124° |
| 2026-05-05 18:18 | 47.14124 | 9.81736 | 4407 ft | 196 kts | 124° |
| 2026-05-05 18:18 | 47.13334 | 9.83361 | 4680 ft | 198 kts | 134° |
| 2026-05-05 18:19 | 47.12233 | 9.84682 | 4733 ft | 211 kts | 147° |
| 2026-05-05 18:19 | 47.11004 | 9.85908 | 4918 ft | 213 kts | 148° |
| 2026-05-05 18:19 | 47.09787 | 9.87178 | 5086 ft | 218 kts | 146° |
| 2026-05-05 18:19 | 47.08587 | 9.88517 | 5409 ft | 212 kts | 141° |
| 2026-05-05 18:20 | 47.07520 | 9.90005 | 5641 ft | 214 kts | 140° |
| 2026-05-05 18:20 | 47.06389 | 9.91466 | 5767 ft | 217 kts | 141° |
| 2026-05-05 18:20 | 47.05233 | 9.92950 | 5711 ft | 226 kts | 142° |
| 2026-05-05 18:20 | 47.04053 | 9.94502 | 5687 ft | 231 kts | 140° |
| 2026-05-05 18:21 | 47.02885 | 9.96117 | 5859 ft | 227 kts | 141° |
| 2026-05-05 18:21 | 47.01763 | 9.97673 | 6229 ft | 215 kts | 138° |
| 2026-05-05 18:21 | 47.00733 | 9.99212 | 6468 ft | 212 kts | 136° |
| 2026-05-05 18:21 | 46.99700 | 10.00756 | 6639 ft | 210 kts | 138° |
| 2026-05-05 18:22 | 46.98678 | 10.02268 | 6868 ft | 210 kts | 133° |
| 2026-05-05 18:22 | 46.97871 | 10.04056 | 7176 ft | 210 kts | 118° |
| 2026-05-05 18:22 | 46.97531 | 10.06090 | 7594 ft | 210 kts | 103° |
| 2026-05-05 18:22 | 46.97291 | 10.08277 | 7734 ft | 222 kts | 104° |
| 2026-05-05 18:23 | 46.97067 | 10.10520 | 8028 ft | 220 kts | 103° |
| 2026-05-05 18:23 | 46.96880 | 10.12706 | 8371 ft | 215 kts | 98° |
| 2026-05-05 18:23 | 46.96809 | 10.14941 | 8324 ft | 226 kts | 95° |
| 2026-05-05 18:23 | 46.96991 | 10.17297 | 8304 ft | 239 kts | 83° |
| 2026-05-05 18:24 | 46.97351 | 10.19730 | 8186 ft | 247 kts | 81° |
| 2026-05-05 18:24 | 46.97900 | 10.22108 | 8030 ft | 250 kts | 63° |
| 2026-05-05 18:24 | 46.98889 | 10.24208 | 7873 ft | 250 kts | 55° |
| 2026-05-05 18:24 | 46.99865 | 10.26258 | 7998 ft | 242 kts | 59° |
| 2026-05-05 18:25 | 47.00906 | 10.28220 | 7725 ft | 246 kts | 52° |
| 2026-05-05 18:25 | 47.01680 | 10.29437 | 7501 ft | 247 kts | 46° |
| 2026-05-05 18:25 | 47.03232 | 10.31883 | 7287 ft | 239 kts | 52° |
| 2026-05-05 18:25 | 47.04322 | 10.33738 | 6907 ft | 242 kts | 53° |
| 2026-05-05 18:26 | 47.05332 | 10.35701 | 6604 ft | 242 kts | 56° |
| 2026-05-05 18:26 | 47.06269 | 10.37784 | 6228 ft | 246 kts | 66° |
| 2026-05-05 18:26 | 47.06806 | 10.40066 | 6253 ft | 229 kts | 77° |
| 2026-05-05 18:26 | 47.07212 | 10.42285 | 6156 ft | 224 kts | 79° |
| 2026-05-05 18:27 | 47.07689 | 10.44449 | 6017 ft | 223 kts | 70° |
| 2026-05-05 18:27 | 47.08474 | 10.46381 | 5935 ft | 222 kts | 57° |
| 2026-05-05 18:27 | 47.09475 | 10.48081 | 5952 ft | 218 kts | 46° |
| 2026-05-05 18:27 | 47.10664 | 10.49534 | 5789 ft | 229 kts | 40° |
| 2026-05-05 18:28 | 47.12920 | 10.52861 | 5712 ft | 228 kts | 56° |
| 2026-05-05 18:28 | 47.13892 | 10.54642 | 5752 ft | 226 kts | 52° |
| 2026-05-05 18:28 | 47.14839 | 10.56510 | 5698 ft | 229 kts | 57° |
| 2026-05-05 18:29 | 47.15722 | 10.58434 | 5766 ft | 224 kts | 57° |
| 2026-05-05 18:29 | 47.16630 | 10.60272 | 5826 ft | 222 kts | 51° |
| 2026-05-05 18:29 | 47.17672 | 10.62010 | 5798 ft | 231 kts | 52° |
| 2026-05-05 18:29 | 47.18601 | 10.63923 | 6035 ft | 228 kts | 60° |
| 2026-05-05 18:30 | 47.19379 | 10.65996 | 6097 ft | 232 kts | 65° |
| 2026-05-05 18:30 | 47.20027 | 10.68154 | 6341 ft | 230 kts | 73° |
| 2026-05-05 18:30 | 47.20494 | 10.70406 | 6511 ft | 232 kts | 78° |
| 2026-05-05 18:30 | 47.20857 | 10.72734 | 6627 ft | 234 kts | 81° |
| 2026-05-05 18:31 | 47.21179 | 10.75089 | 6736 ft | 234 kts | 81° |
| 2026-05-05 18:31 | 47.21487 | 10.77463 | 6752 ft | 241 kts | 83° |
| 2026-05-05 18:31 | 47.21716 | 10.79977 | 6556 ft | 252 kts | 86° |
| 2026-05-05 18:31 | 47.21923 | 10.82438 | 6939 ft | 236 kts | 85° |
| 2026-05-05 18:32 | 47.22095 | 10.84863 | 6914 ft | 241 kts | 87° |
| 2026-05-05 18:32 | 47.22291 | 10.87344 | 6732 ft | 250 kts | 84° |
| 2026-05-05 18:32 | 47.22521 | 10.89861 | 6768 ft | 249 kts | 86° |
| 2026-05-05 18:32 | 47.22708 | 10.92379 | 6899 ft | 245 kts | 86° |
| 2026-05-05 18:33 | 47.22839 | 10.94881 | 6895 ft | 246 kts | 91° |
| 2026-05-05 18:33 | 47.22504 | 10.97286 | 6969 ft | 242 kts | 118° |
| 2026-05-05 18:33 | 47.21559 | 10.99252 | 7115 ft | 234 kts | 128° |
| 2026-05-05 18:33 | 47.21036 | 11.01363 | 7369 ft | 228 kts | 87° |
| 2026-05-05 18:34 | 47.21804 | 11.03504 | 6955 ft | 237 kts | 62° |
| 2026-05-05 18:34 | 47.22167 | 11.05620 | 6852 ft | 201 kts | 96° |
| 2026-05-05 18:34 | 47.21701 | 11.07399 | 6583 ft | 181 kts | 137° |
| 2026-05-05 18:34 | 47.20770 | 11.08634 | 6236 ft | 179 kts | 129° |
| 2026-05-05 18:35 | 47.20358 | 11.10297 | 6107 ft | 170 kts | 102° |
| 2026-05-05 18:35 | 47.20248 | 11.12017 | 5853 ft | 169 kts | 104° |
| 2026-05-05 18:35 | 47.19917 | 11.13656 | 5604 ft | 168 kts | 111° |
| 2026-05-05 18:35 | 47.19758 | 11.15405 | 5061 ft | 182 kts | 87° |
| 2026-05-05 18:36 | 47.20043 | 11.17187 | 4921 ft | 175 kts | 78° |
| 2026-05-05 18:36 | 47.20444 | 11.18797 | 4710 ft | 164 kts | 68° |
| 2026-05-05 18:36 | 47.20972 | 11.20285 | 4461 ft | 163 kts | 66° |
| 2026-05-05 18:36 | 47.21517 | 11.21630 | 4323 ft | 146 kts | 57° |
| 2026-05-05 18:37 | 47.22214 | 11.22693 | 4040 ft | 143 kts | 48° |
| 2026-05-05 18:37 | 47.22870 | 11.23763 | 3778 ft | 138 kts | 53° |
| 2026-05-05 18:37 | 47.23494 | 11.24805 | 3431 ft | 138 kts | 52° |
| 2026-05-05 18:37 | 47.24176 | 11.25757 | 3209 ft | 135 kts | 47° |
| 2026-05-05 18:38 | 47.24808 | 11.26738 | 2952 ft | 129 kts | 56° |
| 2026-05-05 18:38 | 47.25234 | 11.27817 | 2786 ft | 112 kts | 71° |
| 2026-05-05 18:38 | 47.25457 | 11.28843 | 2594 ft | 96 kts | 87° |
| 2026-05-05 18:38 | 47.25548 | 11.29787 | 2409 ft | 89 kts | 89° |
| 2026-05-05 18:39 | 47.25635 | 11.30649 | 2267 ft | 84 kts | 90° |
| 2026-05-05 18:39 | 47.25716 | 11.31499 | 2157 ft | 85 kts | 88° |
| 2026-05-05 18:39 | 47.25800 | 11.32326 | 2058 ft | 79 kts | 91° |
| 2026-05-05 18:39 | 47.25888 | 11.33099 | 1928 ft | 73 kts | 94° |
| 2026-05-05 18:40 | 47.25943 | 11.33706 | 1904 ft | 44 kts | 69° |
| 2026-05-05 18:40 | 47.25981 | 11.34023 | 1899 ft | 29 kts | 77° |
| 2026-05-05 18:40 | 47.26015 | 11.34345 | 1904 ft | 33 kts | 82° |
| 2026-05-05 18:40 | 47.26055 | 11.34677 | 1898 ft | 33 kts | 79° |
| 2026-05-05 18:41 | 47.26142 | 11.34831 | 1897 ft | 20 kts | 1° |
| 2026-05-05 18:41 | 47.26209 | 11.34799 | 1903 ft | 9 kts | 278° |
| 2026-05-05 18:41 | 47.26211 | 11.34771 | 1899 ft | 1 kts | 273° |
| 2026-05-05 18:41 | 47.26211 | 11.34770 | 1899 ft | 0 kts | 272° |
| 2026-05-05 18:42 | 47.26211 | 11.34758 | 1897 ft | 5 kts | 263° |
| 2026-05-05 18:42 | 47.26213 | 11.34706 | 1898 ft | 2 kts | 320° |
| 2026-05-05 18:43 | 47.26222 | 11.34703 | 1900 ft | 1 kts | 9° |
| 2026-05-05 18:44 | 47.26223 | 11.34703 | 1900 ft | 0 kts | 15° |
| 2026-05-05 18:46 | 47.26222 | 11.34703 | 1900 ft | 0 kts | 23° |